LIBN/LCC METAR and TAF weather

Enter ICAO airport designator
Station Type Date Time Source
LIBN METAR 2021/05/12 03:55 UTC NOAA

LIBN 120355Z 00000KT CAVOK 15/15 Q1010 RMK BKN SCT120 SCT160 VIS MIN 9999 WIND THR14 00000KT WIND THR32 00000KT BLU


Station Type Date Time Source
LIBN Decoded METAR 2021/05/12 03:55 UTC NOAA

Lecce, Italy (LIBN) 40-14N 018-09E 61M
May 11, 2021 - 11:55 PM EDT / 2021.05.12 0355 UTC
Wind: Calm:0
Visibility: greater than 7 mile(s):0
Temperature: 59 F (15 C)
Dew Point: 59 F (15 C)
Relative Humidity: 100%
Pressure (altimeter): 29.83 in. Hg (1010 hPa)
ob: LIBN 120355Z 00000KT CAVOK 15/15 Q1010 RMK BKN SCT120 SCT160 VIS MIN 9999 WIND THR14 00000KT WIND THR32 00000KT BLU
cycle: 4

Station Type Date Time Source
LIBN TAF 2020/12/04 12:57 UTC NOAA

TAF TAF LIBN 041100Z 0412/0424 24010KT 6000 SCT008 BKN020
TEMPO 0412/0415 2000 RA BKN006 FEW018CB BKN040
BECMG 0417/0419 18010KT 8000 SCT020

Example: see airport list